Hikarimaru No.17 — JD2956 — position and weather

sailwx.info

Track history (hours):
 
Tides and Currents Weather Stations Pressure Air Temp Water Temp Dewpoint Dewpoint Depression Visibility Wind Speed Wind Dir Waves Ship Positions

Hikarimaru No.17

Last reported at 2015-May-22 10:23 UTC. Time now 2015-May-23 04:21 UTC.
Position N 34°37' E 134°56'.

Length 105 m; draft 5.6 m.

Type: Tanker. MMSI: 431000984.

Date/timePositionNaut miles runAvg speedWind from/ knotsBaromVisibWave heightAir tempDewpointWater temp
2015-May-22 10:23N 34°37' E 134°56'7 8.7
2015-May-22 09:33N 34°34' E 135°05'1313.2
2015-May-22 08:32N 34°21' E 135°01'1111.1
2015-May-22 07:33N 34°10' E 134°56'9 0.2
2015-May-20 04:24N 34°02' E 135°00'1012.2
2015-May-20 03:33N 34°09' E 135°10'1 0.9
2015-May-20 02:32N 34°09' E 135°11'0 0.0
2015-May-20 01:32N 34°09' E 135°11'0 0.1
2015-May-20 00:24N 34°09' E 135°11'910.8
2015-May-19 23:33N 34°13' E 135°02'1211.0
2015-May-19 22:31N 34°25' E 135°00'1111.8
2015-May-19 21:33N 34°36' E 135°02'7 0.2
2015-May-18 15:22N 34°36' E 134°54'1012.0
2015-May-18 14:34N 34°35' E 135°05'1313.2
2015-May-18 13:33N 34°22' E 135°02'1111.1
2015-May-18 12:33N 34°12' E 135°05'5 3.0
2015-May-18 11:04N 34°07' E 135°07'1 1.4
2015-May-18 10:33N 34°08' E 135°07'0 0.3
2015-May-18 09:29N 34°08' E 135°06'0 0.0
2015-May-18 08:32N 34°08' E 135°06'0 0.1
2015-May-18 07:33N 34°08' E 135°06'5 4.5
2015-May-18 06:33N 34°12' E 135°09'0 0.0
2015-May-18 05:31N 34°12' E 135°09'0 0.0
2015-May-18 04:25N 34°12' E 135°09'0 0.0
2015-May-18 03:28N 34°12' E 135°09'0 0.0
2015-May-18 02:28N 34°12' E 135°09'0 0.0
2015-May-18 01:28N 34°12' E 135°09'0 0.0
2015-May-18 00:31N 34°12' E 135°09'0 0.0
2015-May-17 23:31N 34°12' E 135°09'0 0.0
2015-May-17 22:31N 34°12' E 135°09'0 0.0
2015-May-17 21:31N 34°12' E 135°09'0 0.0
2015-May-17 20:31N 34°12' E 135°09'0 0.0
2015-May-17 19:31N 34°12' E 135°09'0 0.0
2015-May-17 18:31N 34°12' E 135°09'0 0.0
2015-May-17 17:31N 34°12' E 135°09'0 0.0
2015-May-17 16:31N 34°12' E 135°09'0 0.0
2015-May-17 15:31N 34°12' E 135°09'0 0.0
2015-May-17 14:31N 34°12' E 135°09'0 0.0
2015-May-17 13:31N 34°12' E 135°09'0 0.0
2015-May-17 12:31N 34°12' E 135°09'0 0.0
2015-May-17 11:31N 34°12' E 135°09'0 0.0
2015-May-17 10:31N 34°12' E 135°09'0 0.0
2015-May-17 09:31N 34°12' E 135°09'0 0.0
2015-May-17 08:31N 34°12' E 135°09'0 0.0
2015-May-17 07:31N 34°12' E 135°09'0 0.0
2015-May-17 06:31N 34°12' E 135°09'0 0.0
2015-May-17 05:31N 34°12' E 135°09'0 0.0
2015-May-17 04:31N 34°12' E 135°09'0 0.0
2015-May-17 01:31N 34°12' E 135°09'0 0.0
2015-May-17 00:31N 34°12' E 135°09'0 0.0
2015-May-16 23:31N 34°12' E 135°09'0 0.0
2015-May-16 22:31N 34°12' E 135°09'0 0.0
2015-May-16 21:31N 34°12' E 135°09'0 0.0
2015-May-16 20:31N 34°12' E 135°09'0 0.0
2015-May-16 19:31N 34°12' E 135°09'0 0.0
2015-May-16 18:31N 34°12' E 135°09'0 0.0
2015-May-16 17:31N 34°12' E 135°09'0 0.0
2015-May-16 16:31N 34°12' E 135°09'0 0.0
2015-May-16 15:25N 34°12' E 135°09'0 0.0
2015-May-16 14:31N 34°12' E 135°09'0 0.0
2015-May-16 13:31N 34°12' E 135°09'0 0.0
2015-May-16 12:31N 34°12' E 135°09'0 0.0
2015-May-16 11:22N 34°12' E 135°09'0 0.0
2015-May-16 10:31N 34°12' E 135°09'0 0.0
2015-May-16 09:31N 34°12' E 135°09'0 0.0
2015-May-16 08:31N 34°12' E 135°09'0 0.0
2015-May-16 07:31N 34°12' E 135°09'0 0.0
2015-May-16 06:31N 34°12' E 135°09'0 0.0
2015-May-16 05:28N 34°12' E 135°09'0 0.0
2015-May-16 04:31N 34°12' E 135°09'0 0.0
2015-May-16 03:28N 34°12' E 135°09'0 0.0
2015-May-16 02:31N 34°12' E 135°09'0 0.0
2015-May-16 01:28N 34°12' E 135°09'1 1.5
2015-May-16 00:33N 34°12' E 135°07'4 3.3
2015-May-15 23:30N 34°09' E 135°09'0 0.0
2015-May-15 22:30N 34°09' E 135°09'0 0.1
2015-May-15 21:33N 34°10' E 135°09'0 0.0
2015-May-15 20:33N 34°10' E 135°09'0 0.0
2015-May-15 19:30N 34°10' E 135°09'0 0.1
2015-May-15 18:30N 34°10' E 135°09'0 0.0
2015-May-15 17:33N 34°10' E 135°09'0 0.0
2015-May-15 16:33N 34°10' E 135°09'0 0.0
2015-May-15 15:33N 34°10' E 135°09'0 0.0
2015-May-15 14:33N 34°10' E 135°09'0 0.0
2015-May-15 13:33N 34°10' E 135°09'0 0.0
2015-May-15 12:33N 34°10' E 135°09'0 0.0
2015-May-15 11:33N 34°10' E 135°09'0 0.0
2015-May-15 10:33N 34°10' E 135°09'0 0.0
2015-May-15 09:33N 34°10' E 135°09'0 0.0
2015-May-15 08:33N 34°10' E 135°09'0 0.0
2015-May-15 07:33N 34°10' E 135°09'0 0.0
2015-May-15 06:33N 34°10' E 135°09'0 0.0
2015-May-15 05:33N 34°10' E 135°09'0 0.1
2015-May-15 04:33N 34°10' E 135°09'0 0.0
2015-May-15 03:33N 34°10' E 135°09'1 0.6
2015-May-15 02:33N 34°09' E 135°09'1 1.4
2015-May-15 01:33N 34°09' E 135°11'0 0.0
2015-May-15 00:33N 34°09' E 135°11'0 0.0
2015-May-14 23:33N 34°09' E 135°11'2 1.9
2015-May-14 22:31N 34°09' E 135°09'0 0.0
2015-May-14 21:31N 34°09' E 135°09'0 0.1
2015-May-14 20:31N 34°09' E 135°09'0 0.0
2015-May-14 19:31N 34°09' E 135°09'0 0.1
2015-May-14 18:25N 34°09' E 135°09'0 0.0
2015-May-14 17:31N 34°09' E 135°09'0 0.0
2015-May-14 16:31N 34°09' E 135°09'0 0.1
2015-May-14 15:31N 34°09' E 135°09'0 0.0
2015-May-14 14:31N 34°09' E 135°09'1 0.7
2015-May-14 13:34N 34°10' E 135°08'1211.7
2015-May-14 12:33N 34°18' E 134°59'1212.2
2015-May-14 11:33N 34°27' E 135°09'1312.8
2015-May-14 10:33N 34°33' E 135°22'0 0.1
2015-May-14 05:33N 34°33' E 135°22'1313.3
2015-May-14 04:33N 34°26' E 135°09'1212.3
2015-May-14 03:32N 34°16' E 134°60'1211.9
2015-May-14 02:33N 34°09' E 135°11'0 0.0
2015-May-13 23:15N 34°09' E 135°11'2 3.1
2015-May-13 22:30N 34°09' E 135°08'0 0.0
2015-May-13 21:33N 34°09' E 135°08'0 0.0
2015-May-13 20:33N 34°10' E 135°08'0 0.0
2015-May-13 19:30N 34°09' E 135°08'0 0.0
2015-May-13 18:33N 34°09' E 135°08'6 6.0
2015-May-13 17:34N 34°13' E 135°03'1110.6
2015-May-13 16:33N 34°23' E 135°00'1212.4
2015-May-13 15:33N 34°36' E 135°03'1613.3
2015-May-13 14:23N 34°32' E 134°45'  
Track history (hours):
 
Tides and Currents Weather Stations Pressure Air Temp Water Temp Dewpoint Dewpoint Depression Visibility Wind Speed Wind Dir Waves Ship Positions

Hikarimaru No.17

Last reported at 2015-May-22 10:23 UTC. Time now 2015-May-23 04:21 UTC.
Position N 34°37' E 134°56'.

Length 105 m; draft 5.6 m.

Type: Tanker. MMSI: 431000984.

Date/timePositionNaut miles runAvg speedWind from/ knotsBaromVisibWave heightAir tempDewpointWater temp
2015-May-22 10:23N 34°37' E 134°56'7 8.7
2015-May-22 09:33N 34°34' E 135°05'1313.2
2015-May-22 08:32N 34°21' E 135°01'1111.1
2015-May-22 07:33N 34°10' E 134°56'9 0.2
2015-May-20 04:24N 34°02' E 135°00'1012.2
2015-May-20 03:33N 34°09' E 135°10'1 0.9
2015-May-20 02:32N 34°09' E 135°11'0 0.0
2015-May-20 01:32N 34°09' E 135°11'0 0.1
2015-May-20 00:24N 34°09' E 135°11'910.8
2015-May-19 23:33N 34°13' E 135°02'1211.0
2015-May-19 22:31N 34°25' E 135°00'1111.8
2015-May-19 21:33N 34°36' E 135°02'7 0.2
2015-May-18 15:22N 34°36' E 134°54'1012.0
2015-May-18 14:34N 34°35' E 135°05'1313.2
2015-May-18 13:33N 34°22' E 135°02'1111.1
2015-May-18 12:33N 34°12' E 135°05'5 3.0
2015-May-18 11:04N 34°07' E 135°07'1 1.4
2015-May-18 10:33N 34°08' E 135°07'0 0.3
2015-May-18 09:29N 34°08' E 135°06'0 0.0
2015-May-18 08:32N 34°08' E 135°06'0 0.1
2015-May-18 07:33N 34°08' E 135°06'5 4.5
2015-May-18 06:33N 34°12' E 135°09'0 0.0
2015-May-18 05:31N 34°12' E 135°09'0 0.0
2015-May-18 04:25N 34°12' E 135°09'0 0.0
2015-May-18 03:28N 34°12' E 135°09'0 0.0
2015-May-18 02:28N 34°12' E 135°09'0 0.0
2015-May-18 01:28N 34°12' E 135°09'0 0.0
2015-May-18 00:31N 34°12' E 135°09'0 0.0
2015-May-17 23:31N 34°12' E 135°09'0 0.0
2015-May-17 22:31N 34°12' E 135°09'0 0.0
2015-May-17 21:31N 34°12' E 135°09'0 0.0
2015-May-17 20:31N 34°12' E 135°09'0 0.0
2015-May-17 19:31N 34°12' E 135°09'0 0.0
2015-May-17 18:31N 34°12' E 135°09'0 0.0
2015-May-17 17:31N 34°12' E 135°09'0 0.0
2015-May-17 16:31N 34°12' E 135°09'0 0.0
2015-May-17 15:31N 34°12' E 135°09'0 0.0
2015-May-17 14:31N 34°12' E 135°09'0 0.0
2015-May-17 13:31N 34°12' E 135°09'0 0.0
2015-May-17 12:31N 34°12' E 135°09'0 0.0
2015-May-17 11:31N 34°12' E 135°09'0 0.0
2015-May-17 10:31N 34°12' E 135°09'0 0.0
2015-May-17 09:31N 34°12' E 135°09'0 0.0
2015-May-17 08:31N 34°12' E 135°09'0 0.0
2015-May-17 07:31N 34°12' E 135°09'0 0.0
2015-May-17 06:31N 34°12' E 135°09'0 0.0
2015-May-17 05:31N 34°12' E 135°09'0 0.0
2015-May-17 04:31N 34°12' E 135°09'0 0.0
2015-May-17 01:31N 34°12' E 135°09'0 0.0
2015-May-17 00:31N 34°12' E 135°09'0 0.0
2015-May-16 23:31N 34°12' E 135°09'0 0.0
2015-May-16 22:31N 34°12' E 135°09'0 0.0
2015-May-16 21:31N 34°12' E 135°09'0 0.0
2015-May-16 20:31N 34°12' E 135°09'0 0.0
2015-May-16 19:31N 34°12' E 135°09'0 0.0
2015-May-16 18:31N 34°12' E 135°09'0 0.0
2015-May-16 17:31N 34°12' E 135°09'0 0.0
2015-May-16 16:31N 34°12' E 135°09'0 0.0
2015-May-16 15:25N 34°12' E 135°09'0 0.0
2015-May-16 14:31N 34°12' E 135°09'0 0.0
2015-May-16 13:31N 34°12' E 135°09'0 0.0
2015-May-16 12:31N 34°12' E 135°09'0 0.0
2015-May-16 11:22N 34°12' E 135°09'0 0.0
2015-May-16 10:31N 34°12' E 135°09'0 0.0
2015-May-16 09:31N 34°12' E 135°09'0 0.0
2015-May-16 08:31N 34°12' E 135°09'0 0.0
2015-May-16 07:31N 34°12' E 135°09'0 0.0
2015-May-16 06:31N 34°12' E 135°09'0 0.0
2015-May-16 05:28N 34°12' E 135°09'0 0.0
2015-May-16 04:31N 34°12' E 135°09'0 0.0
2015-May-16 03:28N 34°12' E 135°09'0 0.0
2015-May-16 02:31N 34°12' E 135°09'0 0.0
2015-May-16 01:28N 34°12' E 135°09'1 1.5
2015-May-16 00:33N 34°12' E 135°07'4 3.3
2015-May-15 23:30N 34°09' E 135°09'0 0.0
2015-May-15 22:30N 34°09' E 135°09'0 0.1
2015-May-15 21:33N 34°10' E 135°09'0 0.0
2015-May-15 20:33N 34°10' E 135°09'0 0.0
2015-May-15 19:30N 34°10' E 135°09'0 0.1
2015-May-15 18:30N 34°10' E 135°09'0 0.0
2015-May-15 17:33N 34°10' E 135°09'0 0.0
2015-May-15 16:33N 34°10' E 135°09'0 0.0
2015-May-15 15:33N 34°10' E 135°09'0 0.0
2015-May-15 14:33N 34°10' E 135°09'0 0.0
2015-May-15 13:33N 34°10' E 135°09'0 0.0
2015-May-15 12:33N 34°10' E 135°09'0 0.0
2015-May-15 11:33N 34°10' E 135°09'0 0.0
2015-May-15 10:33N 34°10' E 135°09'0 0.0
2015-May-15 09:33N 34°10' E 135°09'0 0.0
2015-May-15 08:33N 34°10' E 135°09'0 0.0
2015-May-15 07:33N 34°10' E 135°09'0 0.0
2015-May-15 06:33N 34°10' E 135°09'0 0.0
2015-May-15 05:33N 34°10' E 135°09'0 0.1
2015-May-15 04:33N 34°10' E 135°09'0 0.0
2015-May-15 03:33N 34°10' E 135°09'1 0.6
2015-May-15 02:33N 34°09' E 135°09'1 1.4
2015-May-15 01:33N 34°09' E 135°11'0 0.0
2015-May-15 00:33N 34°09' E 135°11'0 0.0
2015-May-14 23:33N 34°09' E 135°11'2 1.9
2015-May-14 22:31N 34°09' E 135°09'0 0.0
2015-May-14 21:31N 34°09' E 135°09'0 0.1
2015-May-14 20:31N 34°09' E 135°09'0 0.0
2015-May-14 19:31N 34°09' E 135°09'0 0.1
2015-May-14 18:25N 34°09' E 135°09'0 0.0
2015-May-14 17:31N 34°09' E 135°09'0 0.0
2015-May-14 16:31N 34°09' E 135°09'0 0.1
2015-May-14 15:31N 34°09' E 135°09'0 0.0
2015-May-14 14:31N 34°09' E 135°09'1 0.7
2015-May-14 13:34N 34°10' E 135°08'1211.7
2015-May-14 12:33N 34°18' E 134°59'1212.2
2015-May-14 11:33N 34°27' E 135°09'1312.8
2015-May-14 10:33N 34°33' E 135°22'0 0.1
2015-May-14 05:33N 34°33' E 135°22'1313.3
2015-May-14 04:33N 34°26' E 135°09'1212.3
2015-May-14 03:32N 34°16' E 134°60'1211.9
2015-May-14 02:33N 34°09' E 135°11'0 0.0
2015-May-13 23:15N 34°09' E 135°11'2 3.1
2015-May-13 22:30N 34°09' E 135°08'0 0.0
2015-May-13 21:33N 34°09' E 135°08'0 0.0
2015-May-13 20:33N 34°10' E 135°08'0 0.0
2015-May-13 19:30N 34°09' E 135°08'0 0.0
2015-May-13 18:33N 34°09' E 135°08'6 6.0
2015-May-13 17:34N 34°13' E 135°03'1110.6
2015-May-13 16:33N 34°23' E 135°00'1212.4
2015-May-13 15:33N 34°36' E 135°03'1613.3
2015-May-13 14:23N 34°32' E 134°45'  

Dump ship's entire track history